sensor_id;sensor_type;location;lat;lon;timestamp;pressure;altitude;pressure_sealevel;temperature;humidity
35291;BME280;21411;50.024;19.220;2023-03-23T00:01:18;98452.08;;;6.99;100.00
35291;BME280;21411;50.024;19.220;2023-03-23T00:03:48;98449.70;;;6.95;100.00
35291;BME280;21411;50.024;19.220;2023-03-23T00:06:16;98444.17;;;6.90;100.00
35291;BME280;21411;50.024;19.220;2023-03-23T00:08:47;98449.74;;;6.86;100.00
35291;BME280;21411;50.024;19.220;2023-03-23T00:11:16;98452.83;;;6.84;100.00
35291;BME280;21411;50.024;19.220;2023-03-23T00:13:45;98450.45;;;6.82;100.00
35291;BME280;21411;50.024;19.220;2023-03-23T00:16:13;98448.02;;;6.79;100.00
35291;BME280;21411;50.024;19.220;2023-03-23T00:18:48;98447.98;;;6.73;100.00
35291;BME280;21411;50.024;19.220;2023-03-23T00:21:19;98451.48;;;6.68;100.00
35291;BME280;21411;50.024;19.220;2023-03-23T00:23:46;98452.30;;;6.63;100.00
35291;BME280;21411;50.024;19.220;2023-03-23T00:26:14;98451.52;;;6.55;100.00
35291;BME280;21411;50.024;19.220;2023-03-23T00:28:40;98453.55;;;6.48;100.00
35291;BME280;21411;50.024;19.220;2023-03-23T00:31:09;98453.56;;;6.45;100.00
35291;BME280;21411;50.024;19.220;2023-03-23T00:33:37;98452.91;;;6.44;100.00
35291;BME280;21411;50.024;19.220;2023-03-23T00:36:09;98453.19;;;6.43;100.00
35291;BME280;21411;50.024;19.220;2023-03-23T00:38:37;98451.69;;;6.41;100.00
35291;BME280;21411;50.024;19.220;2023-03-23T00:41:04;98453.59;;;6.39;100.00
35291;BME280;21411;50.024;19.220;2023-03-23T00:43:32;98455.61;;;6.37;100.00
35291;BME280;21411;50.024;19.220;2023-03-23T00:46:03;98455.86;;;6.36;100.00
35291;BME280;21411;50.024;19.220;2023-03-23T00:48:36;98459.73;;;6.33;100.00
35291;BME280;21411;50.024;19.220;2023-03-23T00:51:07;98456.99;;;6.32;100.00
35291;BME280;21411;50.024;19.220;2023-03-23T00:53:38;98460.73;;;6.31;100.00
35291;BME280;21411;50.024;19.220;2023-03-23T00:56:07;98462.45;;;6.29;100.00
35291;BME280;21411;50.024;19.220;2023-03-23T00:58:34;98460.15;;;6.26;100.00
35291;BME280;21411;50.024;19.220;2023-03-23T01:01:02;98460.01;;;6.23;100.00
35291;BME280;21411;50.024;19.220;2023-03-23T01:03:29;98456.77;;;6.17;100.00
35291;BME280;21411;50.024;19.220;2023-03-23T01:05:56;98457.90;;;6.13;100.00
35291;BME280;21411;50.024;19.220;2023-03-23T01:08:24;98460.93;;;6.09;100.00
35291;BME280;21411;50.024;19.220;2023-03-23T01:10:50;98463.04;;;6.07;100.00
35291;BME280;21411;50.024;19.220;2023-03-23T01:13:17;98459.23;;;6.05;100.00
35291;BME280;21411;50.024;19.220;2023-03-23T01:15:45;98461.24;;;6.04;100.00
35291;BME280;21411;50.024;19.220;2023-03-23T01:18:12;98465.50;;;6.04;100.00
35291;BME280;21411;50.024;19.220;2023-03-23T01:20:38;98469.10;;;6.02;100.00
35291;BME280;21411;50.024;19.220;2023-03-23T01:23:05;98470.04;;;5.98;100.00
35291;BME280;21411;50.024;19.220;2023-03-23T01:25:35;98468.77;;;5.92;100.00
35291;BME280;21411;50.024;19.220;2023-03-23T01:28:03;98468.59;;;5.89;100.00
35291;BME280;21411;50.024;19.220;2023-03-23T01:30:29;98467.63;;;5.87;100.00
35291;BME280;21411;50.024;19.220;2023-03-23T01:32:56;98468.42;;;5.85;100.00
35291;BME280;21411;50.024;19.220;2023-03-23T01:35:30;98467.83;;;5.83;100.00
35291;BME280;21411;50.024;19.220;2023-03-23T01:37:56;98467.73;;;5.79;100.00
35291;BME280;21411;50.024;19.220;2023-03-23T01:40:26;98468.80;;;5.76;100.00
35291;BME280;21411;50.024;19.220;2023-03-23T01:42:53;98470.11;;;5.71;100.00
35291;BME280;21411;50.024;19.220;2023-03-23T01:50:39;98465.77;;;5.47;100.00
35291;BME280;21411;50.024;19.220;2023-03-23T01:53:08;98463.61;;;5.41;100.00
35291;BME280;21411;50.024;19.220;2023-03-23T01:55:38;98462.08;;;5.34;100.00
35291;BME280;21411;50.024;19.220;2023-03-23T01:58:06;98460.52;;;5.27;100.00
35291;BME280;21411;50.024;19.220;2023-03-23T02:00:34;98459.14;;;5.23;100.00
35291;BME280;21411;50.024;19.220;2023-03-23T02:03:01;98454.20;;;5.24;100.00
35291;BME280;21411;50.024;19.220;2023-03-23T02:05:32;98449.98;;;5.23;100.00
35291;BME280;21411;50.024;19.220;2023-03-23T02:08:02;98452.74;;;5.24;100.00
35291;BME280;21411;50.024;19.220;2023-03-23T02:10:31;98452.39;;;5.28;100.00
35291;BME280;21411;50.024;19.220;2023-03-23T02:13:00;98454.83;;;5.32;100.00
35291;BME280;21411;50.024;19.220;2023-03-23T02:15:35;98456.95;;;5.35;100.00
35291;BME280;21411;50.024;19.220;2023-03-23T02:31:47;98444.76;;;5.61;100.00
35291;BME280;21411;50.024;19.220;2023-03-23T02:34:27;98446.89;;;5.64;100.00
35291;BME280;21411;50.024;19.220;2023-03-23T02:37:02;98443.77;;;5.66;100.00
35291;BME280;21411;50.024;19.220;2023-03-23T02:39:34;98442.90;;;5.66;100.00
35291;BME280;21411;50.024;19.220;2023-03-23T02:42:09;98440.52;;;5.64;100.00
35291;BME280;21411;50.024;19.220;2023-03-23T02:44:40;98438.32;;;5.62;100.00
35291;BME280;21411;50.024;19.220;2023-03-23T02:47:14;98437.61;;;5.60;100.00
35291;BME280;21411;50.024;19.220;2023-03-23T02:49:52;98434.79;;;5.57;100.00
35291;BME280;21411;50.024;19.220;2023-03-23T02:52:24;98428.34;;;5.55;100.00
35291;BME280;21411;50.024;19.220;2023-03-23T02:54:53;98422.61;;;5.54;100.00
35291;BME280;21411;50.024;19.220;2023-03-23T02:57:22;98419.83;;;5.50;100.00
35291;BME280;21411;50.024;19.220;2023-03-23T02:59:51;98419.67;;;5.46;100.00
35291;BME280;21411;50.024;19.220;2023-03-23T03:02:21;98415.34;;;5.44;100.00
35291;BME280;21411;50.024;19.220;2023-03-23T03:08:10;98415.52;;;5.48;100.00
35291;BME280;21411;50.024;19.220;2023-03-23T03:10:48;98417.50;;;5.47;100.00
35291;BME280;21411;50.024;19.220;2023-03-23T03:13:25;98416.99;;;5.47;100.00
35291;BME280;21411;50.024;19.220;2023-03-23T03:18:53;98410.36;;;5.49;100.00
35291;BME280;21411;50.024;19.220;2023-03-23T03:21:23;98413.30;;;5.50;100.00
35291;BME280;21411;50.024;19.220;2023-03-23T03:23:55;98412.73;;;5.51;100.00
35291;BME280;21411;50.024;19.220;2023-03-23T03:26:26;98408.83;;;5.51;100.00
35291;BME280;21411;50.024;19.220;2023-03-23T03:28:54;98402.16;;;5.54;100.00
35291;BME280;21411;50.024;19.220;2023-03-23T03:31:28;98403.05;;;5.57;100.00
35291;BME280;21411;50.024;19.220;2023-03-23T03:33:55;98403.39;;;5.60;100.00
35291;BME280;21411;50.024;19.220;2023-03-23T03:36:27;98404.25;;;5.64;100.00
35291;BME280;21411;50.024;19.220;2023-03-23T03:39:03;98398.31;;;5.69;100.00
35291;BME280;21411;50.024;19.220;2023-03-23T03:41:35;98399.42;;;5.74;100.00
35291;BME280;21411;50.024;19.220;2023-03-23T03:44:06;98399.67;;;5.79;100.00
35291;BME280;21411;50.024;19.220;2023-03-23T03:46:34;98399.34;;;5.82;100.00
35291;BME280;21411;50.024;19.220;2023-03-23T03:49:04;98404.40;;;5.83;100.00
35291;BME280;21411;50.024;19.220;2023-03-23T03:51:31;98404.45;;;5.82;100.00
35291;BME280;21411;50.024;19.220;2023-03-23T03:53:58;98409.83;;;5.78;100.00
35291;BME280;21411;50.024;19.220;2023-03-23T03:56:25;98410.27;;;5.76;100.00
35291;BME280;21411;50.024;19.220;2023-03-23T03:58:53;98410.83;;;5.75;100.00
35291;BME280;21411;50.024;19.220;2023-03-23T04:01:21;98417.36;;;5.75;100.00
35291;BME280;21411;50.024;19.220;2023-03-23T04:03:51;98406.31;;;5.74;100.00
35291;BME280;21411;50.024;19.220;2023-03-23T04:06:18;98399.55;;;5.72;100.00
35291;BME280;21411;50.024;19.220;2023-03-23T04:08:45;98395.27;;;5.70;100.00
35291;BME280;21411;50.024;19.220;2023-03-23T04:11:13;98388.69;;;5.68;100.00
35291;BME280;21411;50.024;19.220;2023-03-23T04:13:41;98395.13;;;5.66;100.00
35291;BME280;21411;50.024;19.220;2023-03-23T04:16:08;98407.50;;;5.62;100.00
35291;BME280;21411;50.024;19.220;2023-03-23T04:18:35;98414.98;;;5.58;100.00
35291;BME280;21411;50.024;19.220;2023-03-23T04:21:03;98413.56;;;5.55;100.00
35291;BME280;21411;50.024;19.220;2023-03-23T04:23:31;98411.33;;;5.54;100.00
35291;BME280;21411;50.024;19.220;2023-03-23T04:25:59;98409.14;;;5.55;100.00
35291;BME280;21411;50.024;19.220;2023-03-23T04:28:26;98412.23;;;5.57;100.00
35291;BME280;21411;50.024;19.220;2023-03-23T04:30:54;98415.55;;;5.57;100.00
35291;BME280;21411;50.024;19.220;2023-03-23T04:33:23;98414.98;;;5.58;100.00
35291;BME280;21411;50.024;19.220;2023-03-23T04:36:12;98409.42;;;5.60;100.00
35291;BME280;21411;50.024;19.220;2023-03-23T04:38:42;98406.95;;;5.62;100.00
35291;BME280;21411;50.024;19.220;2023-03-23T04:41:09;98402.31;;;5.64;100.00
35291;BME280;21411;50.024;19.220;2023-03-23T04:43:36;98402.85;;;5.63;100.00
35291;BME280;21411;50.024;19.220;2023-03-23T04:46:08;98402.16;;;5.63;100.00
35291;BME280;21411;50.024;19.220;2023-03-23T04:48:35;98400.07;;;5.63;100.00
35291;BME280;21411;50.024;19.220;2023-03-23T04:51:02;98401.89;;;5.62;100.00
35291;BME280;21411;50.024;19.220;2023-03-23T04:53:31;98401.39;;;5.61;100.00
35291;BME280;21411;50.024;19.220;2023-03-23T04:55:58;98400.74;;;5.60;100.00
35291;BME280;21411;50.024;19.220;2023-03-23T04:58:24;98400.61;;;5.60;100.00
35291;BME280;21411;50.024;19.220;2023-03-23T05:00:51;98396.49;;;5.61;100.00
35291;BME280;21411;50.024;19.220;2023-03-23T05:03:18;98391.46;;;5.62;100.00
35291;BME280;21411;50.024;19.220;2023-03-23T05:05:46;98384.02;;;5.63;100.00
35291;BME280;21411;50.024;19.220;2023-03-23T05:08:22;98387.30;;;5.64;100.00
35291;BME280;21411;50.024;19.220;2023-03-23T05:10:56;98390.25;;;5.68;100.00
35291;BME280;21411;50.024;19.220;2023-03-23T05:13:23;98388.48;;;5.75;100.00
35291;BME280;21411;50.024;19.220;2023-03-23T05:15:50;98391.71;;;5.83;100.00
35291;BME280;21411;50.024;19.220;2023-03-23T05:18:17;98391.73;;;5.95;100.00
35291;BME280;21411;50.024;19.220;2023-03-23T05:20:43;98396.43;;;6.08;100.00
35291;BME280;21411;50.024;19.220;2023-03-23T05:23:12;98398.08;;;6.20;100.00
35291;BME280;21411;50.024;19.220;2023-03-23T05:25:39;98400.04;;;6.34;100.00
35291;BME280;21411;50.024;19.220;2023-03-23T05:28:07;98395.63;;;6.52;100.00
35291;BME280;21411;50.024;19.220;2023-03-23T05:30:35;98393.58;;;6.68;100.00
35291;BME280;21411;50.024;19.220;2023-03-23T05:33:01;98397.55;;;6.84;100.00
35291;BME280;21411;50.024;19.220;2023-03-23T05:35:29;98397.90;;;6.96;100.00
35291;BME280;21411;50.024;19.220;2023-03-23T05:37:56;98397.39;;;7.10;100.00
35291;BME280;21411;50.024;19.220;2023-03-23T05:40:26;98396.02;;;7.26;100.00
35291;BME280;21411;50.024;19.220;2023-03-23T05:42:54;98400.91;;;7.38;100.00
35291;BME280;21411;50.024;19.220;2023-03-23T05:45:22;98401.89;;;7.56;100.00
35291;BME280;21411;50.024;19.220;2023-03-23T05:47:49;98403.52;;;7.72;100.00
35291;BME280;21411;50.024;19.220;2023-03-23T05:50:16;98409.44;;;7.90;100.00
35291;BME280;21411;50.024;19.220;2023-03-23T05:52:43;98412.02;;;8.12;100.00
35291;BME280;21411;50.024;19.220;2023-03-23T05:55:10;98411.69;;;8.36;100.00
35291;BME280;21411;50.024;19.220;2023-03-23T05:57:37;98407.70;;;8.58;100.00
35291;BME280;21411;50.024;19.220;2023-03-23T06:00:05;98400.27;;;8.79;100.00
35291;BME280;21411;50.024;19.220;2023-03-23T06:02:48;98391.87;;;8.98;100.00
35291;BME280;21411;50.024;19.220;2023-03-23T06:05:17;98385.21;;;9.14;100.00
35291;BME280;21411;50.024;19.220;2023-03-23T06:07:44;98386.59;;;9.30;100.00
35291;BME280;21411;50.024;19.220;2023-03-23T06:10:10;98391.73;;;9.42;100.00
35291;BME280;21411;50.024;19.220;2023-03-23T06:12:39;98395.27;;;9.50;100.00
35291;BME280;21411;50.024;19.220;2023-03-23T06:15:07;98389.70;;;9.63;100.00
35291;BME280;21411;50.024;19.220;2023-03-23T06:17:35;98388.77;;;9.85;100.00
35291;BME280;21411;50.024;19.220;2023-03-23T06:20:04;98384.48;;;10.12;100.00
35291;BME280;21411;50.024;19.220;2023-03-23T06:22:39;98382.44;;;10.40;100.00
35291;BME280;21411;50.024;19.220;2023-03-23T06:25:07;98378.06;;;10.69;100.00
35291;BME280;21411;50.024;19.220;2023-03-23T06:27:34;98375.58;;;10.97;100.00
35291;BME280;21411;50.024;19.220;2023-03-23T06:30:02;98382.79;;;11.23;100.00
35291;BME280;21411;50.024;19.220;2023-03-23T06:32:30;98385.04;;;11.43;100.00
35291;BME280;21411;50.024;19.220;2023-03-23T06:34:58;98382.84;;;11.60;100.00
35291;BME280;21411;50.024;19.220;2023-03-23T06:37:24;98377.04;;;11.83;100.00
35291;BME280;21411;50.024;19.220;2023-03-23T06:39:51;98371.66;;;12.10;100.00
35291;BME280;21411;50.024;19.220;2023-03-23T06:42:18;98371.85;;;12.35;100.00
35291;BME280;21411;50.024;19.220;2023-03-23T06:44:45;98373.38;;;12.59;100.00
35291;BME280;21411;50.024;19.220;2023-03-23T06:47:12;98377.70;;;12.79;100.00
35291;BME280;21411;50.024;19.220;2023-03-23T06:49:38;98378.27;;;12.95;100.00
35291;BME280;21411;50.024;19.220;2023-03-23T06:52:05;98377.12;;;13.09;100.00
35291;BME280;21411;50.024;19.220;2023-03-23T06:54:32;98376.39;;;13.21;100.00
35291;BME280;21411;50.024;19.220;2023-03-23T06:56:59;98379.45;;;13.33;100.00
35291;BME280;21411;50.024;19.220;2023-03-23T06:59:26;98379.88;;;13.45;100.00
35291;BME280;21411;50.024;19.220;2023-03-23T07:01:53;98373.40;;;13.53;100.00
35291;BME280;21411;50.024;19.220;2023-03-23T07:04:20;98371.04;;;13.62;100.00
35291;BME280;21411;50.024;19.220;2023-03-23T07:06:47;98370.27;;;13.71;100.00
35291;BME280;21411;50.024;19.220;2023-03-23T07:09:13;98372.11;;;13.80;100.00
35291;BME280;21411;50.024;19.220;2023-03-23T07:11:40;98373.28;;;13.88;100.00
35291;BME280;21411;50.024;19.220;2023-03-23T07:14:07;98373.52;;;13.98;100.00
35291;BME280;21411;50.024;19.220;2023-03-23T07:16:34;98369.30;;;14.07;100.00
35291;BME280;21411;50.024;19.220;2023-03-23T07:19:01;98370.58;;;14.16;100.00
35291;BME280;21411;50.024;19.220;2023-03-23T07:21:27;98370.63;;;14.25;100.00
35291;BME280;21411;50.024;19.220;2023-03-23T07:23:54;98373.30;;;14.35;100.00
35291;BME280;21411;50.024;19.220;2023-03-23T07:26:20;98374.79;;;14.44;100.00
35291;BME280;21411;50.024;19.220;2023-03-23T07:28:48;98374.92;;;14.53;100.00
35291;BME280;21411;50.024;19.220;2023-03-23T07:31:14;98383.45;;;14.63;100.00
35291;BME280;21411;50.024;19.220;2023-03-23T07:33:41;98378.83;;;14.72;100.00
35291;BME280;21411;50.024;19.220;2023-03-23T07:36:08;98375.45;;;14.80;100.00
35291;BME280;21411;50.024;19.220;2023-03-23T07:38:35;98373.17;;;14.86;100.00
35291;BME280;21411;50.024;19.220;2023-03-23T07:41:02;98370.02;;;14.91;100.00
35291;BME280;21411;50.024;19.220;2023-03-23T07:43:29;98364.12;;;14.96;100.00
35291;BME280;21411;50.024;19.220;2023-03-23T07:45:56;98361.50;;;14.99;100.00
35291;BME280;21411;50.024;19.220;2023-03-23T07:48:23;98364.23;;;15.02;100.00
35291;BME280;21411;50.024;19.220;2023-03-23T07:50:49;98370.17;;;15.05;100.00
35291;BME280;21411;50.024;19.220;2023-03-23T07:53:16;98374.66;;;15.09;100.00
35291;BME280;21411;50.024;19.220;2023-03-23T07:55:42;98378.55;;;15.13;100.00
35291;BME280;21411;50.024;19.220;2023-03-23T07:58:09;98383.38;;;15.18;100.00
35291;BME280;21411;50.024;19.220;2023-03-23T08:00:36;98382.98;;;15.26;100.00
35291;BME280;21411;50.024;19.220;2023-03-23T08:03:05;98382.29;;;15.35;100.00
35291;BME280;21411;50.024;19.220;2023-03-23T08:05:32;98386.45;;;15.42;100.00
35291;BME280;21411;50.024;19.220;2023-03-23T08:08:09;98386.68;;;15.55;100.00
35291;BME280;21411;50.024;19.220;2023-03-23T08:10:36;98384.81;;;15.71;100.00
35291;BME280;21411;50.024;19.220;2023-03-23T08:13:03;98385.77;;;15.83;99.05
35291;BME280;21411;50.024;19.220;2023-03-23T08:15:29;98382.44;;;15.93;97.19
35291;BME280;21411;50.024;19.220;2023-03-23T08:17:58;98381.31;;;15.99;95.06
35291;BME280;21411;50.024;19.220;2023-03-23T08:20:24;98386.77;;;16.05;94.63
35291;BME280;21411;50.024;19.220;2023-03-23T08:22:54;98385.83;;;16.15;93.61
35291;BME280;21411;50.024;19.220;2023-03-23T08:25:23;98387.17;;;16.27;92.89
35291;BME280;21411;50.024;19.220;2023-03-23T08:27:51;98389.93;;;16.33;91.94
35291;BME280;21411;50.024;19.220;2023-03-23T08:30:20;98390.83;;;16.38;90.25
35291;BME280;21411;50.024;19.220;2023-03-23T08:32:48;98389.88;;;16.37;89.36
35291;BME280;21411;50.024;19.220;2023-03-23T08:35:17;98387.04;;;16.37;89.24
35291;BME280;21411;50.024;19.220;2023-03-23T08:37:45;98385.46;;;16.37;88.33
35291;BME280;21411;50.024;19.220;2023-03-23T08:40:13;98384.52;;;16.40;88.39
35291;BME280;21411;50.024;19.220;2023-03-23T08:42:42;98383.60;;;16.46;87.64
35291;BME280;21411;50.024;19.220;2023-03-23T08:45:12;98385.82;;;16.54;86.20
35291;BME280;21411;50.024;19.220;2023-03-23T08:47:39;98384.47;;;16.58;84.82
35291;BME280;21411;50.024;19.220;2023-03-23T08:50:08;98384.45;;;16.59;83.05
35291;BME280;21411;50.024;19.220;2023-03-23T08:52:35;98380.14;;;16.59;81.91
35291;BME280;21411;50.024;19.220;2023-03-23T08:55:02;98378.11;;;16.63;80.80
35291;BME280;21411;50.024;19.220;2023-03-23T08:57:30;98377.46;;;16.70;78.55
35291;BME280;21411;50.024;19.220;2023-03-23T08:59:56;98372.10;;;16.78;77.37
35291;BME280;21411;50.024;19.220;2023-03-23T09:02:34;98376.98;;;16.94;77.91
35291;BME280;21411;50.024;19.220;2023-03-23T09:05:01;98378.05;;;17.07;77.13
35291;BME280;21411;50.024;19.220;2023-03-23T09:07:27;98374.52;;;17.16;75.68
35291;BME280;21411;50.024;19.220;2023-03-23T09:09:54;98373.92;;;17.18;74.89
35291;BME280;21411;50.024;19.220;2023-03-23T09:12:21;98374.95;;;17.19;73.56
35291;BME280;21411;50.024;19.220;2023-03-23T09:14:47;98371.67;;;17.36;72.83
35291;BME280;21411;50.024;19.220;2023-03-23T09:17:14;98368.63;;;17.63;72.34
35291;BME280;21411;50.024;19.220;2023-03-23T09:19:41;98365.77;;;17.90;71.70
35291;BME280;21411;50.024;19.220;2023-03-23T09:22:07;98366.36;;;18.13;70.41
35291;BME280;21411;50.024;19.220;2023-03-23T09:24:34;98362.70;;;18.20;69.21
35291;BME280;21411;50.024;19.220;2023-03-23T09:27:02;98364.73;;;18.10;69.04
35291;BME280;21411;50.024;19.220;2023-03-23T09:29:28;98369.04;;;17.92;68.03
35291;BME280;21411;50.024;19.220;2023-03-23T09:31:55;98368.41;;;17.87;68.13
35291;BME280;21411;50.024;19.220;2023-03-23T09:34:22;98376.74;;;17.97;67.03
35291;BME280;21411;50.024;19.220;2023-03-23T09:36:49;98380.04;;;18.13;67.17
35291;BME280;21411;50.024;19.220;2023-03-23T09:39:16;98374.45;;;18.33;67.23
35291;BME280;21411;50.024;19.220;2023-03-23T09:44:36;98369.94;;;18.74;65.59
35291;BME280;21411;50.024;19.220;2023-03-23T09:49:48;98362.59;;;18.98;61.60
35291;BME280;21411;50.024;19.220;2023-03-23T09:52:18;98363.32;;;19.21;61.86
35291;BME280;21411;50.024;19.220;2023-03-23T09:54:52;98359.65;;;19.41;61.42
35291;BME280;21411;50.024;19.220;2023-03-23T10:00:15;98352.71;;;19.71;60.11
35291;BME280;21411;50.024;19.220;2023-03-23T10:05:45;98350.66;;;19.83;58.34
35291;BME280;21411;50.024;19.220;2023-03-23T10:08:25;98353.98;;;19.87;57.07
35291;BME280;21411;50.024;19.220;2023-03-23T10:16:34;98347.46;;;19.75;53.80
35291;BME280;21411;50.024;19.220;2023-03-23T10:19:20;98341.54;;;19.80;52.75
35291;BME280;21411;50.024;19.220;2023-03-23T10:21:51;98330.09;;;19.80;51.82
35291;BME280;21411;50.024;19.220;2023-03-23T10:24:28;98330.38;;;19.84;53.16
35291;BME280;21411;50.024;19.220;2023-03-23T10:29:31;98317.22;;;20.05;54.05
35291;BME280;21411;50.024;19.220;2023-03-23T10:32:16;98314.98;;;20.15;52.45
35291;BME280;21411;50.024;19.220;2023-03-23T10:37:15;98323.23;;;20.17;51.31
35291;BME280;21411;50.024;19.220;2023-03-23T10:39:46;98322.30;;;20.22;51.88
35291;BME280;21411;50.024;19.220;2023-03-23T10:42:22;98321.27;;;20.29;51.90
35291;BME280;21411;50.024;19.220;2023-03-23T10:44:49;98323.95;;;20.32;51.35
35291;BME280;21411;50.024;19.220;2023-03-23T10:47:16;98322.41;;;20.32;50.13
35291;BME280;21411;50.024;19.220;2023-03-23T10:49:49;98324.17;;;20.35;49.63
35291;BME280;21411;50.024;19.220;2023-03-23T10:52:33;98328.58;;;20.42;48.42
35291;BME280;21411;50.024;19.220;2023-03-23T10:55:09;98331.76;;;20.46;46.77
35291;BME280;21411;50.024;19.220;2023-03-23T10:57:39;98321.27;;;20.51;46.04
35291;BME280;21411;50.024;19.220;2023-03-23T11:00:14;98318.13;;;20.61;46.06
35291;BME280;21411;50.024;19.220;2023-03-23T11:03:04;98315.65;;;20.78;46.15
35291;BME280;21411;50.024;19.220;2023-03-23T11:05:53;98319.85;;;20.88;44.67
35291;BME280;21411;50.024;19.220;2023-03-23T11:08:28;98316.23;;;20.72;45.22
35291;BME280;21411;50.024;19.220;2023-03-23T11:11:18;98316.20;;;20.55;45.57
35291;BME280;21411;50.024;19.220;2023-03-23T11:13:49;98314.09;;;20.35;45.70
35291;BME280;21411;50.024;19.220;2023-03-23T11:16:32;98312.50;;;20.18;45.99
35291;BME280;21411;50.024;19.220;2023-03-23T11:19:13;98318.81;;;19.99;45.04
35291;BME280;21411;50.024;19.220;2023-03-23T11:21:46;98319.86;;;19.80;46.19
35291;BME280;21411;50.024;19.220;2023-03-23T11:24:14;98322.27;;;19.62;45.95
35291;BME280;21411;50.024;19.220;2023-03-23T11:26:43;98317.86;;;19.54;45.26
35291;BME280;21411;50.024;19.220;2023-03-23T11:29:14;98310.09;;;19.64;45.95
35291;BME280;21411;50.024;19.220;2023-03-23T11:31:47;98314.94;;;19.77;45.61
35291;BME280;21411;50.024;19.220;2023-03-23T11:34:25;98323.45;;;19.88;45.67
35291;BME280;21411;50.024;19.220;2023-03-23T11:37:00;98320.01;;;19.94;45.97
35291;BME280;21411;50.024;19.220;2023-03-23T11:41:59;98313.94;;;20.10;45.85
35291;BME280;21411;50.024;19.220;2023-03-23T11:44:39;98304.21;;;20.18;45.11
35291;BME280;21411;50.024;19.220;2023-03-23T11:50:18;98309.90;;;20.38;45.42
35291;BME280;21411;50.024;19.220;2023-03-23T11:53:08;98309.82;;;20.54;45.96
35291;BME280;21411;50.024;19.220;2023-03-23T11:58:18;98307.67;;;20.65;45.15
35291;BME280;21411;50.024;19.220;2023-03-23T12:03:44;98311.84;;;20.37;45.54
35291;BME280;21411;50.024;19.220;2023-03-23T12:06:25;98308.46;;;20.11;46.32
35291;BME280;21411;50.024;19.220;2023-03-23T12:11:58;98309.20;;;19.69;47.25
35291;BME280;21411;50.024;19.220;2023-03-23T12:17:26;98306.67;;;19.32;47.85
35291;BME280;21411;50.024;19.220;2023-03-23T12:20:02;98303.61;;;19.23;47.91
35291;BME280;21411;50.024;19.220;2023-03-23T12:22:58;98304.21;;;19.16;47.60
35291;BME280;21411;50.024;19.220;2023-03-23T12:46:20;98304.54;;;18.39;51.11
35291;BME280;21411;50.024;19.220;2023-03-23T12:52:38;98302.13;;;18.26;51.23
35291;BME280;21411;50.024;19.220;2023-03-23T12:55:32;98298.33;;;18.24;51.27
35291;BME280;21411;50.024;19.220;2023-03-23T12:58:05;98299.27;;;18.27;51.38
35291;BME280;21411;50.024;19.220;2023-03-23T13:03:38;98305.63;;;18.33;51.42
35291;BME280;21411;50.024;19.220;2023-03-23T13:09:05;98309.19;;;18.33;51.35
35291;BME280;21411;50.024;19.220;2023-03-23T13:11:35;98309.15;;;18.32;51.30
35291;BME280;21411;50.024;19.220;2023-03-23T13:17:38;98303.41;;;18.39;51.82
35291;BME280;21411;50.024;19.220;2023-03-23T13:23:14;98298.13;;;18.59;51.69
35291;BME280;21411;50.024;19.220;2023-03-23T13:28:29;98292.04;;;18.91;51.67
35291;BME280;21411;50.024;19.220;2023-03-23T13:33:25;98282.95;;;19.19;51.42
35291;BME280;21411;50.024;19.220;2023-03-23T13:35:52;98282.50;;;19.33;51.32
35291;BME280;21411;50.024;19.220;2023-03-23T13:38:23;98280.29;;;19.43;50.82
35291;BME280;21411;50.024;19.220;2023-03-23T13:40:52;98275.24;;;19.46;50.69
35291;BME280;21411;50.024;19.220;2023-03-23T13:43:34;98269.07;;;19.45;49.97
35291;BME280;21411;50.024;19.220;2023-03-23T13:46:24;98268.41;;;19.41;50.04
35291;BME280;21411;50.024;19.220;2023-03-23T13:49:05;98264.95;;;19.38;50.39
35291;BME280;21411;50.024;19.220;2023-03-23T13:54:29;98258.61;;;19.50;50.31
35291;BME280;21411;50.024;19.220;2023-03-23T13:57:02;98249.62;;;19.60;50.54
35291;BME280;21411;50.024;19.220;2023-03-23T13:59:33;98252.42;;;19.70;50.56
35291;BME280;21411;50.024;19.220;2023-03-23T14:02:36;98254.95;;;19.77;49.97
35291;BME280;21411;50.024;19.220;2023-03-23T14:05:23;98248.85;;;19.80;50.03
35291;BME280;21411;50.024;19.220;2023-03-23T14:07:54;98242.37;;;19.78;49.90
35291;BME280;21411;50.024;19.220;2023-03-23T14:10:23;98245.03;;;19.74;50.15
35291;BME280;21411;50.024;19.220;2023-03-23T14:12:52;98243.23;;;19.67;50.05
35291;BME280;21411;50.024;19.220;2023-03-23T14:15:20;98239.59;;;19.63;49.98
35291;BME280;21411;50.024;19.220;2023-03-23T14:17:46;98239.45;;;19.61;49.97
35291;BME280;21411;50.024;19.220;2023-03-23T14:20:24;98239.21;;;19.60;50.14
35291;BME280;21411;50.024;19.220;2023-03-23T14:22:55;98239.66;;;19.59;50.59
35291;BME280;21411;50.024;19.220;2023-03-23T14:25:26;98238.40;;;19.55;50.48
35291;BME280;21411;50.024;19.220;2023-03-23T14:27:53;98242.77;;;19.48;50.59
35291;BME280;21411;50.024;19.220;2023-03-23T14:30:23;98240.85;;;19.41;50.89
35291;BME280;21411;50.024;19.220;2023-03-23T14:32:51;98240.18;;;19.38;50.97
35291;BME280;21411;50.024;19.220;2023-03-23T14:35:31;98243.16;;;19.37;50.72
35291;BME280;21411;50.024;19.220;2023-03-23T14:37:58;98243.56;;;19.35;50.63
35291;BME280;21411;50.024;19.220;2023-03-23T14:40:27;98245.30;;;19.35;50.30
35291;BME280;21411;50.024;19.220;2023-03-23T14:42:54;98241.17;;;19.37;50.15
35291;BME280;21411;50.024;19.220;2023-03-23T14:45:23;98243.99;;;19.39;50.35
35291;BME280;21411;50.024;19.220;2023-03-23T14:47:59;98248.55;;;19.40;50.31
35291;BME280;21411;50.024;19.220;2023-03-23T14:50:36;98250.27;;;19.42;50.33
35291;BME280;21411;50.024;19.220;2023-03-23T14:53:11;98250.86;;;19.45;50.38